< Typhoon 198125 1981 Season Typhoon 198127 >
Typhoon 198126 (IRMA)
General InformationTrack Information on Google MapsDetailed Wind InformationList of All Images || Disaster Info.ResourceGoogle EarthGE AnimationAtom FeedGeoJSON
Detalied Best Track (Time Zone = UTC)
Year Month Day Hour Lat. Long. Pressure (hPa) Wind (kt) Class Image Chart
1981 11 18 18 13.0 150.0 1008 0 2 Image Chart
1981 11 19 00 13.0 149.3 1006 0 2 Image Chart
1981 11 19 06 13.3 148.0 1000 40 3 Image Chart
1981 11 19 12 13.9 146.8 998 45 3 Image Chart
1981 11 19 18 13.9 145.8 995 45 3 Image Chart
1981 11 20 00 13.9 144.7 990 45 3 Image Chart
1981 11 20 06 13.9 143.7 985 50 4 Image Chart
1981 11 20 12 13.9 142.6 980 55 4 Image Chart
1981 11 20 18 13.8 141.5 975 60 4 Image Chart
1981 11 21 00 13.8 140.4 970 65 5 Image Chart
1981 11 21 06 13.8 139.3 960 70 5 Image Chart
1981 11 21 12 13.8 138.2 950 80 5 Image Chart
1981 11 21 18 13.5 137.1 950 90 5 Image Chart
1981 11 22 00 13.4 135.9 925 90 5 Image Chart
1981 11 22 06 13.1 134.4 910 110 5 Image Chart
1981 11 22 12 12.8 132.8 905 110 5 Image Chart
1981 11 22 18 12.6 131.3 910 110 5 Image Chart
1981 11 23 00 12.6 129.8 915 110 5 Image Chart
1981 11 23 06 12.6 128.5 920 100 5 Image Chart
1981 11 23 12 13.0 126.5 920 105 5 Image Chart
1981 11 23 18 13.9 124.6 935 95 5 Image Chart
1981 11 24 00 14.5 123.3 950 95 5 Image Chart
1981 11 24 06 15.4 121.9 965 85 5 Image Chart
1981 11 24 12 16.3 120.5 980 75 5 Image Chart
1981 11 24 18 17.1 119.7 985 65 5 Image Chart
1981 11 25 00 17.8 119.1 990 55 4 Image Chart
1981 11 25 06 18.5 119.4 990 50 4 Image Chart
1981 11 25 12 19.3 120.0 990 45 3 Image Chart
1981 11 25 18 20.2 120.7 990 40 3 Image Chart
1981 11 26 00 21.1 121.4 992 40 3 Image Chart
1981 11 26 06 21.9 122.1 994 40 3 Image Chart
1981 11 26 12 22.7 123.0 996 40 3 Image Chart
1981 11 26 18 23.4 124.5 998 35 3 Image Chart
1981 11 27 00 24.1 126.8 1000 0 6 Image Chart
1981 11 27 06 25.0 130.0 1002 0 6 Image Chart
1981 11 27 12 27.0 134.4 1004 0 6 Image Chart
1981 11 27 18 29.2 138.0 1004 0 6 Image Chart
Japan Meteorological Agency Best Track Data | Correction Date : 1992-10-21
< Typhoon 198125 1981 Season Typhoon 198127 >

Help